createdAt,value
2023-07-24T00:02:19.725Z,13.15
2023-07-24T00:04:47.356Z,13.17
2023-07-24T00:07:15.425Z,13.19
2023-07-24T00:12:26.007Z,13.20
2023-07-24T00:14:54.084Z,13.16
2023-07-24T00:17:21.957Z,13.17
2023-07-24T00:19:50.327Z,13.22
2023-07-24T00:22:17.984Z,13.26
2023-07-24T00:24:46.211Z,13.30
2023-07-24T00:27:15.247Z,13.34
2023-07-24T00:29:42.911Z,13.39
2023-07-24T00:32:10.569Z,13.44
2023-07-24T00:34:38.231Z,13.41
2023-07-24T00:37:06.362Z,13.25
2023-07-24T00:39:34.472Z,13.11
2023-07-24T00:42:03.062Z,13.00
2023-07-24T00:44:30.611Z,12.91
2023-07-24T00:46:58.372Z,12.83
2023-07-24T00:49:26.147Z,12.76
2023-07-24T00:51:54.423Z,12.69
2023-07-24T00:54:22.077Z,12.63
2023-07-24T00:56:49.643Z,12.59
2023-07-24T00:59:17.309Z,12.54
2023-07-24T01:01:45.061Z,12.48
2023-07-24T01:04:13.948Z,12.43
2023-07-24T01:06:41.617Z,12.38
2023-07-24T01:09:09.272Z,12.33
2023-07-24T01:11:58.130Z,12.31
2023-07-24T01:14:38.914Z,12.29
2023-07-24T01:17:08.100Z,12.28
2023-07-24T01:19:39.968Z,12.28
2023-07-24T01:22:12.326Z,12.29
2023-07-24T01:24:51.216Z,12.28
2023-07-24T01:27:25.913Z,12.30
2023-07-24T01:29:54.355Z,12.31
2023-07-24T01:32:22.159Z,12.32
2023-07-24T01:34:50.118Z,12.33
2023-07-24T01:37:17.746Z,12.35
2023-07-24T01:39:45.611Z,12.34
2023-07-24T01:42:13.376Z,12.35
2023-07-24T01:44:41.037Z,12.38
2023-07-24T01:47:08.861Z,12.41
2023-07-24T01:49:36.573Z,12.45
2023-07-24T01:52:04.692Z,12.49
2023-07-24T01:54:32.298Z,12.58
2023-07-24T01:56:59.993Z,12.66
2023-07-24T01:59:27.625Z,12.69
2023-07-24T02:01:55.840Z,12.67
2023-07-24T02:04:23.759Z,12.64
2023-07-24T02:06:51.423Z,12.61
2023-07-24T02:09:19.287Z,12.59
2023-07-24T02:11:46.954Z,12.60
2023-07-24T02:14:15.221Z,12.60
2023-07-24T02:16:45.109Z,12.58
2023-07-24T02:19:13.720Z,12.57
2023-07-24T02:21:42.202Z,12.56
2023-07-24T02:24:09.865Z,12.55
2023-07-24T02:26:38.035Z,12.51
2023-07-24T02:29:05.697Z,12.45
2023-07-24T02:31:34.143Z,12.41
2023-07-24T02:34:01.845Z,12.36
2023-07-24T02:36:29.666Z,12.33
2023-07-24T02:38:57.668Z,12.33
2023-07-24T02:41:25.333Z,12.33
2023-07-24T02:43:53.607Z,12.34
2023-07-24T02:46:21.281Z,12.36
2023-07-24T02:48:49.437Z,12.38
2023-07-24T02:51:17.203Z,12.39
2023-07-24T02:53:44.864Z,12.41
2023-07-24T02:56:12.416Z,12.46
2023-07-24T02:58:40.491Z,12.50
2023-07-24T03:01:09.007Z,12.53
2023-07-24T03:03:36.772Z,12.57
2023-07-24T03:06:05.016Z,12.61
2023-07-24T03:08:33.799Z,12.68
2023-07-24T03:11:03.613Z,12.77
2023-07-24T03:13:31.685Z,12.88
2023-07-24T03:16:00.711Z,13.00
2023-07-24T03:18:28.337Z,13.12
2023-07-24T03:20:56.720Z,13.23
2023-07-24T03:23:24.382Z,13.33
2023-07-24T03:25:52.038Z,13.45
2023-07-24T03:28:19.594Z,13.57
2023-07-24T03:30:47.351Z,13.70
2023-07-24T03:33:15.325Z,13.82
2023-07-24T03:35:42.894Z,13.96
2023-07-24T03:38:10.442Z,14.08
2023-07-24T03:40:38.002Z,14.22
2023-07-24T03:43:05.663Z,14.39
2023-07-24T03:45:33.228Z,14.57
2023-07-24T03:48:00.920Z,14.76
2023-07-24T03:50:30.501Z,14.97
2023-07-24T03:52:58.046Z,15.19
2023-07-24T03:55:25.675Z,15.43
2023-07-24T03:57:53.369Z,15.71
2023-07-24T04:00:21.153Z,16.06
2023-07-24T04:02:48.805Z,16.48
2023-07-24T04:05:16.565Z,16.99
2023-07-24T04:07:44.230Z,17.50
2023-07-24T04:10:11.987Z,18.02
2023-07-24T04:12:39.644Z,18.47
2023-07-24T04:15:08.224Z,18.85
2023-07-24T04:17:37.250Z,19.19
2023-07-24T04:20:05.900Z,19.52
2023-07-24T04:22:33.568Z,19.86
2023-07-24T04:25:01.224Z,20.16
2023-07-24T04:27:29.825Z,20.41
2023-07-24T04:29:57.468Z,20.61
2023-07-24T04:32:25.170Z,20.89
2023-07-24T04:34:52.789Z,21.17
2023-07-24T04:37:20.972Z,21.35
2023-07-24T04:39:48.722Z,21.47
2023-07-24T04:42:16.283Z,21.67
2023-07-24T04:44:43.842Z,21.90
2023-07-24T04:47:11.506Z,22.04
2023-07-24T04:49:39.273Z,22.15
2023-07-24T04:52:07.240Z,22.27
2023-07-24T04:54:35.208Z,22.36
2023-07-24T04:57:03.069Z,22.40
2023-07-24T04:59:30.736Z,22.56
2023-07-24T05:01:58.404Z,22.77
2023-07-24T05:04:26.274Z,22.98
2023-07-24T05:06:54.634Z,23.14
2023-07-24T05:09:22.200Z,23.38
2023-07-24T05:11:49.857Z,23.60
2023-07-24T05:14:17.514Z,23.74
2023-07-24T05:16:45.363Z,23.93
2023-07-24T05:19:13.148Z,24.14
2023-07-24T05:21:40.909Z,24.18
2023-07-24T05:24:08.573Z,24.07
2023-07-24T05:26:36.342Z,24.25
2023-07-24T05:29:03.997Z,24.23
2023-07-24T05:31:31.719Z,24.08
2023-07-24T05:33:59.314Z,24.07
2023-07-24T05:36:27.952Z,24.38
2023-07-24T05:38:55.971Z,24.80
2023-07-24T05:41:23.935Z,25.10
2023-07-24T05:43:51.804Z,25.29
2023-07-24T05:46:20.023Z,25.40
2023-07-24T05:48:47.740Z,25.47
2023-07-24T05:51:16.021Z,25.41
2023-07-24T05:53:43.473Z,25.37
2023-07-24T05:56:11.953Z,25.24
2023-07-24T05:58:39.624Z,25.17
2023-07-24T06:01:09.958Z,25.23
2023-07-24T06:03:40.367Z,25.27
2023-07-24T06:06:08.739Z,25.18
2023-07-24T06:08:36.808Z,25.21
2023-07-24T06:11:04.982Z,25.30
2023-07-24T06:13:32.550Z,25.20
2023-07-24T06:16:00.947Z,25.07
2023-07-24T06:18:28.788Z,25.15
2023-07-24T06:20:56.454Z,25.17
2023-07-24T06:23:24.516Z,25.17
2023-07-24T06:25:53.204Z,25.19
2023-07-24T06:28:20.965Z,25.12
2023-07-24T06:30:49.137Z,25.05
2023-07-24T06:33:16.803Z,25.02
2023-07-24T06:35:44.467Z,25.14
2023-07-24T06:38:12.224Z,25.26
2023-07-24T06:40:39.891Z,25.39
2023-07-24T06:43:07.568Z,25.49
2023-07-24T06:45:35.266Z,25.59
2023-07-24T06:48:02.999Z,25.60
2023-07-24T06:50:30.663Z,25.51
2023-07-24T06:52:58.709Z,25.33
2023-07-24T06:55:26.368Z,25.19
2023-07-24T06:57:54.449Z,25.16
2023-07-24T07:00:22.306Z,25.18
2023-07-24T07:02:49.906Z,25.21
2023-07-24T07:05:17.723Z,25.17
2023-07-24T07:07:46.106Z,25.17
2023-07-24T07:10:13.676Z,25.02
2023-07-24T07:12:41.324Z,24.87
2023-07-24T07:15:09.428Z,24.84
2023-07-24T07:17:37.101Z,24.91
2023-07-24T07:20:05.460Z,24.92
2023-07-24T07:22:33.198Z,24.92
2023-07-24T07:25:00.872Z,24.87
2023-07-24T07:27:28.627Z,24.87
2023-07-24T07:29:56.289Z,24.97
2023-07-24T07:32:24.056Z,25.08
2023-07-24T07:34:51.927Z,25.21
2023-07-24T07:37:19.578Z,25.36
2023-07-24T07:39:47.343Z,25.46
2023-07-24T07:42:18.161Z,25.43
2023-07-24T07:44:47.568Z,25.27
2023-07-24T07:47:15.368Z,25.11
2023-07-24T07:49:43.436Z,24.99
2023-07-24T07:52:11.067Z,24.91
2023-07-24T07:54:38.737Z,24.89
2023-07-24T07:57:06.509Z,24.92
2023-07-24T07:59:35.174Z,25.00
2023-07-24T08:02:02.843Z,25.21
2023-07-24T08:04:30.506Z,25.46
2023-07-24T08:06:58.563Z,25.69
2023-07-24T08:09:26.328Z,25.76
2023-07-24T08:11:54.518Z,25.85
2023-07-24T08:14:22.274Z,26.02
2023-07-24T08:16:51.194Z,26.17
2023-07-24T08:19:18.917Z,26.23
2023-07-24T08:21:48.328Z,26.29
2023-07-24T08:24:16.036Z,26.39
2023-07-24T08:26:44.360Z,26.54
2023-07-24T08:29:11.932Z,26.57
2023-07-24T08:31:40.160Z,26.55
2023-07-24T08:34:07.857Z,26.57
2023-07-24T08:36:36.130Z,26.55
2023-07-24T08:39:04.610Z,26.54
2023-07-24T08:41:33.840Z,26.60
2023-07-24T08:44:01.472Z,26.71
2023-07-24T08:46:29.662Z,26.71
2023-07-24T08:48:58.122Z,26.69
2023-07-24T08:51:25.704Z,26.74
2023-07-24T08:53:53.650Z,26.79
2023-07-24T08:56:21.622Z,26.77
2023-07-24T08:58:49.280Z,26.83
2023-07-24T09:01:17.693Z,26.93
2023-07-24T09:03:45.546Z,26.88
2023-07-24T09:06:13.293Z,26.68
2023-07-24T09:08:42.488Z,26.55
2023-07-24T09:11:11.194Z,26.36
2023-07-24T09:13:39.910Z,26.20
2023-07-24T09:16:07.710Z,26.09
2023-07-24T09:18:42.458Z,26.14
2023-07-24T09:21:13.794Z,26.15
2023-07-24T09:23:42.271Z,26.18
2023-07-24T09:26:10.142Z,26.30
2023-07-24T09:28:38.104Z,26.53
2023-07-24T09:31:06.475Z,26.69
2023-07-24T09:33:38.834Z,26.87
2023-07-24T09:36:11.907Z,26.99
2023-07-24T09:38:40.538Z,26.86
2023-07-24T09:41:10.095Z,26.77
2023-07-24T09:43:40.315Z,26.67
2023-07-24T09:46:10.975Z,26.69
2023-07-24T09:48:42.391Z,26.80
2023-07-24T09:51:29.684Z,26.80
2023-07-24T09:54:02.047Z,26.73
2023-07-24T09:56:43.452Z,26.81
2023-07-24T09:59:16.086Z,26.95
2023-07-24T10:01:44.360Z,27.10
2023-07-24T10:04:12.269Z,27.22
2023-07-24T10:06:40.617Z,27.45
2023-07-24T10:09:08.271Z,27.69
2023-07-24T10:11:36.074Z,27.68
2023-07-24T10:14:03.695Z,27.63
2023-07-24T10:16:31.912Z,27.67
2023-07-24T10:18:59.725Z,27.74
2023-07-24T10:21:28.739Z,27.74
2023-07-24T10:23:56.685Z,27.90
2023-07-24T10:26:28.513Z,27.91
2023-07-24T10:28:56.101Z,27.86
2023-07-24T10:31:26.963Z,27.82
2023-07-24T10:33:54.674Z,27.84
2023-07-24T10:36:24.146Z,28.09
2023-07-24T10:38:55.882Z,28.19
2023-07-24T10:41:24.037Z,28.28
2023-07-24T10:43:53.751Z,28.40
2023-07-24T10:46:22.873Z,28.50
2023-07-24T10:48:52.276Z,28.46
2023-07-24T10:51:20.936Z,28.39
2023-07-24T10:53:49.646Z,28.27
2023-07-24T10:56:17.881Z,28.24
2023-07-24T10:58:45.654Z,28.32
2023-07-24T11:01:14.143Z,28.31
2023-07-24T11:03:43.133Z,28.33
2023-07-24T11:06:16.130Z,28.28
2023-07-24T11:08:44.182Z,28.19
2023-07-24T11:11:13.513Z,28.17
2023-07-24T11:13:41.144Z,28.06
2023-07-24T11:16:09.922Z,28.17
2023-07-24T11:18:54.642Z,28.34
2023-07-24T11:21:26.450Z,28.37
2023-07-24T11:23:56.109Z,28.44
2023-07-24T11:26:25.071Z,28.47
2023-07-24T11:28:53.521Z,28.46
2023-07-24T11:31:22.052Z,28.48
2023-07-24T11:33:53.248Z,28.38
2023-07-24T11:36:21.727Z,28.29
2023-07-24T11:38:49.798Z,28.48
2023-07-24T11:41:21.389Z,28.78
2023-07-24T11:43:52.129Z,28.72
2023-07-24T11:46:31.564Z,28.47
2023-07-24T11:48:59.927Z,28.57
2023-07-24T11:51:29.906Z,28.82
2023-07-24T11:54:08.713Z,28.96
2023-07-24T11:56:37.460Z,28.86
2023-07-24T11:59:12.776Z,28.76
2023-07-24T12:01:40.557Z,28.76
2023-07-24T12:04:08.269Z,28.77
2023-07-24T12:06:37.284Z,28.78
2023-07-24T12:09:08.456Z,28.87
2023-07-24T12:11:46.908Z,28.92
2023-07-24T12:14:16.141Z,28.93
2023-07-24T12:16:44.680Z,28.83
2023-07-24T12:19:12.491Z,28.93
2023-07-24T12:21:40.350Z,29.07
2023-07-24T12:24:08.732Z,29.29
2023-07-24T12:26:36.899Z,29.53
2023-07-24T12:30:36.830Z,29.55
2023-07-24T12:33:04.530Z,29.55
2023-07-24T12:35:32.961Z,29.46
2023-07-24T12:38:00.824Z,29.38
2023-07-24T12:40:28.603Z,29.27
2023-07-24T12:42:56.258Z,29.12
2023-07-24T12:45:24.024Z,29.04
2023-07-24T12:47:51.701Z,29.23
2023-07-24T12:50:19.443Z,29.21
2023-07-24T12:52:47.435Z,29.06
2023-07-24T12:55:15.593Z,29.15
2023-07-24T12:57:43.243Z,29.26
2023-07-24T13:00:11.420Z,29.31
2023-07-24T13:02:39.308Z,29.19
2023-07-24T13:05:07.455Z,29.02
2023-07-24T13:07:35.221Z,28.93
2023-07-24T13:10:02.885Z,28.81
2023-07-24T13:12:30.541Z,28.75
2023-07-24T13:14:58.218Z,28.86
2023-07-24T13:17:26.395Z,29.00
2023-07-24T13:19:54.035Z,29.02
2023-07-24T13:22:21.697Z,29.10
2023-07-24T13:24:49.309Z,29.31
2023-07-24T13:27:16.907Z,29.38
2023-07-24T13:29:44.588Z,29.35
2023-07-24T13:32:12.250Z,29.20
2023-07-24T13:34:40.099Z,29.14
2023-07-24T13:37:07.761Z,29.12
2023-07-24T13:39:36.849Z,29.26
2023-07-24T13:42:04.834Z,29.57
2023-07-24T13:44:32.492Z,29.86
2023-07-24T13:47:00.353Z,29.91
2023-07-24T13:49:28.013Z,29.85
2023-07-24T13:51:55.682Z,29.58
2023-07-24T13:54:23.345Z,29.48
2023-07-24T13:56:51.000Z,29.50
2023-07-24T13:59:19.636Z,29.55
2023-07-24T14:01:47.478Z,29.58
2023-07-24T14:04:15.900Z,29.56
2023-07-24T14:06:44.304Z,29.52
2023-07-24T14:09:13.092Z,29.45
2023-07-24T14:11:40.757Z,29.49
2023-07-24T14:14:09.231Z,29.45
2023-07-24T14:16:37.663Z,29.25
2023-07-24T14:19:06.701Z,29.21
2023-07-24T14:21:34.886Z,29.28
2023-07-24T14:24:02.530Z,29.25
2023-07-24T14:26:30.809Z,29.32
2023-07-24T14:28:58.471Z,29.30
2023-07-24T14:31:26.638Z,29.46
2023-07-24T14:33:54.513Z,29.64
2023-07-24T14:36:22.375Z,29.80
2023-07-24T14:38:50.956Z,29.80
2023-07-24T14:41:19.130Z,29.56
2023-07-24T14:43:46.796Z,29.39
2023-07-24T14:46:14.679Z,29.47
2023-07-24T14:48:42.330Z,29.59
2023-07-24T14:51:10.282Z,29.53
2023-07-24T14:53:38.459Z,29.45
2023-07-24T14:56:06.124Z,29.48
2023-07-24T14:58:33.881Z,29.44
2023-07-24T15:01:01.565Z,29.37
2023-07-24T15:03:29.656Z,29.30
2023-07-24T15:05:57.793Z,29.29
2023-07-24T15:08:25.358Z,29.28
2023-07-24T15:10:52.906Z,29.31
2023-07-24T15:13:21.084Z,29.35
2023-07-24T15:15:48.894Z,29.44
2023-07-24T15:18:16.706Z,29.56
2023-07-24T15:20:44.260Z,29.66
2023-07-24T15:23:12.128Z,29.71
2023-07-24T15:25:39.788Z,29.72
2023-07-24T15:28:07.349Z,29.58
2023-07-24T15:30:35.123Z,29.42
2023-07-24T15:33:02.830Z,29.31
2023-07-24T15:35:30.541Z,29.34
2023-07-24T15:37:58.295Z,29.50
2023-07-24T15:40:25.958Z,29.82
2023-07-24T15:42:53.625Z,30.13
2023-07-24T15:45:21.285Z,30.23
2023-07-24T15:47:49.037Z,30.25
2023-07-24T15:50:16.803Z,30.34
2023-07-24T15:52:44.373Z,30.36
2023-07-24T15:55:12.129Z,30.37
2023-07-24T15:57:39.787Z,30.52
2023-07-24T16:00:09.807Z,30.68
2023-07-24T16:02:40.478Z,30.92
2023-07-24T16:05:20.607Z,31.13
2023-07-24T16:07:48.727Z,31.28
2023-07-24T16:10:17.972Z,31.49
2023-07-24T16:12:45.829Z,31.40
2023-07-24T16:15:13.489Z,31.20
2023-07-24T16:18:05.691Z,31.17
2023-07-24T16:20:29.507Z,31.23
2023-07-24T16:22:57.361Z,31.18
2023-07-24T16:25:25.026Z,31.25
2023-07-24T16:27:52.689Z,31.35
2023-07-24T16:30:22.260Z,31.40
2023-07-24T16:32:50.768Z,31.42
2023-07-24T16:35:18.737Z,31.44
2023-07-24T16:37:48.542Z,31.41
2023-07-24T16:40:16.928Z,31.18
2023-07-24T16:42:46.635Z,30.93
2023-07-24T16:45:29.064Z,30.80
2023-07-24T16:47:57.306Z,30.69
2023-07-24T16:50:25.600Z,30.55
2023-07-24T16:52:53.352Z,30.37
2023-07-24T16:55:21.021Z,30.14
2023-07-24T16:57:48.674Z,29.77
2023-07-24T17:00:17.576Z,29.29
2023-07-24T17:02:45.260Z,28.79
2023-07-24T17:05:12.993Z,28.31
2023-07-24T17:07:40.650Z,27.83
2023-07-24T17:10:10.694Z,27.30
2023-07-24T17:12:38.334Z,26.72
2023-07-24T17:15:06.827Z,26.15
2023-07-24T17:17:34.746Z,25.69
2023-07-24T17:20:02.434Z,25.29
2023-07-24T17:22:30.093Z,24.86
2023-07-24T17:24:58.182Z,24.42
2023-07-24T17:27:26.788Z,24.00
2023-07-24T17:29:54.405Z,23.58
2023-07-24T17:32:23.617Z,23.22
2023-07-24T17:34:51.281Z,22.87
2023-07-24T17:37:36.200Z,22.56
2023-07-24T17:40:09.362Z,22.22
2023-07-24T17:42:37.614Z,21.93
2023-07-24T17:45:05.755Z,21.63
2023-07-24T17:47:34.225Z,21.36
2023-07-24T17:50:07.906Z,21.13
2023-07-24T17:52:37.310Z,20.90
2023-07-24T17:55:05.569Z,20.69
2023-07-24T17:57:34.250Z,20.51
2023-07-24T18:00:02.086Z,20.34
2023-07-24T18:02:32.764Z,20.18
2023-07-24T18:05:00.778Z,20.01
2023-07-24T18:07:28.340Z,19.88
2023-07-24T18:09:55.998Z,19.73
2023-07-24T18:12:24.070Z,19.62
2023-07-24T18:14:51.740Z,19.50
2023-07-24T18:17:19.401Z,19.37
2023-07-24T18:19:48.241Z,19.27
2023-07-24T18:22:17.272Z,19.19
2023-07-24T18:24:45.377Z,19.12
2023-07-24T18:27:13.510Z,19.04
2023-07-24T18:29:41.304Z,18.97
2023-07-24T18:32:09.706Z,18.90
2023-07-24T18:34:37.635Z,18.83
2023-07-24T18:37:05.798Z,18.73
2023-07-24T18:39:33.461Z,18.64
2023-07-24T18:42:01.321Z,18.56
2023-07-24T18:44:28.985Z,18.48
2023-07-24T18:46:56.644Z,18.41
2023-07-24T18:49:24.611Z,18.34
2023-07-24T18:51:53.516Z,18.27
2023-07-24T18:54:22.607Z,18.19
2023-07-24T18:56:50.362Z,18.13
2023-07-24T18:59:18.126Z,18.05
2023-07-24T19:01:46.413Z,17.98
2023-07-24T19:04:14.678Z,17.92
2023-07-24T19:06:42.445Z,17.84
2023-07-24T19:09:10.099Z,17.76
2023-07-24T19:11:37.866Z,17.68
2023-07-24T19:14:05.730Z,17.61
2023-07-24T19:16:33.746Z,17.53
2023-07-24T19:19:05.161Z,17.45
2023-07-24T19:21:33.179Z,17.40
2023-07-24T19:24:00.982Z,17.34
2023-07-24T19:26:28.642Z,17.29
2023-07-24T19:28:56.302Z,17.24
2023-07-24T19:31:24.720Z,17.21
2023-07-24T19:33:52.351Z,17.16
2023-07-24T19:36:20.922Z,17.10
2023-07-24T19:38:48.585Z,17.06
2023-07-24T19:41:16.243Z,17.03
2023-07-24T19:43:44.418Z,16.99
2023-07-24T19:46:12.232Z,16.94
2023-07-24T19:48:40.154Z,16.91
2023-07-24T19:51:07.811Z,16.88
2023-07-24T19:53:35.461Z,16.84
2023-07-24T19:56:03.024Z,16.79
2023-07-24T19:58:33.846Z,16.75
2023-07-24T20:01:03.119Z,16.72
2023-07-24T20:03:31.489Z,16.69
2023-07-24T20:06:03.426Z,16.64
2023-07-24T20:08:34.746Z,16.60
2023-07-24T20:11:03.862Z,16.55
2023-07-24T20:13:32.135Z,16.51
2023-07-24T20:15:59.810Z,16.46
2023-07-24T20:18:27.535Z,16.44
2023-07-24T20:20:55.506Z,16.42
2023-07-24T20:23:23.274Z,16.41
2023-07-24T20:25:54.219Z,16.42
2023-07-24T20:28:22.132Z,16.43
2023-07-24T20:30:49.849Z,16.42
2023-07-24T20:33:17.610Z,16.41
2023-07-24T20:35:46.507Z,16.38
2023-07-24T20:38:33.623Z,16.36
2023-07-24T20:41:02.310Z,16.35
2023-07-24T20:43:30.967Z,16.34
2023-07-24T20:45:58.710Z,16.34
2023-07-24T20:48:27.687Z,16.35
2023-07-24T20:50:55.389Z,16.37
2023-07-24T20:53:23.001Z,16.36
2023-07-24T20:55:50.624Z,16.33
2023-07-24T20:58:18.273Z,16.33
2023-07-24T21:00:45.935Z,16.32
2023-07-24T21:03:13.596Z,16.31
2023-07-24T21:05:41.323Z,16.28
2023-07-24T21:08:09.939Z,16.26
2023-07-24T21:10:37.602Z,16.23
2023-07-24T21:13:05.365Z,16.20
2023-07-24T21:15:33.669Z,16.21
2023-07-24T21:18:01.398Z,16.21
2023-07-24T21:20:29.067Z,16.20
2023-07-24T21:22:56.727Z,16.18
2023-07-24T21:25:24.392Z,16.18
2023-07-24T21:27:52.041Z,16.17
2023-07-24T21:30:21.915Z,16.14
2023-07-24T21:32:49.674Z,16.14
2023-07-24T21:35:19.631Z,16.14
2023-07-24T21:37:47.296Z,16.11
2023-07-24T21:40:14.964Z,16.10
2023-07-24T21:42:42.717Z,16.07
2023-07-24T21:45:10.785Z,16.06
2023-07-24T21:47:38.880Z,16.06
2023-07-24T21:50:07.571Z,16.06
2023-07-24T21:52:35.206Z,16.06
2023-07-24T21:55:02.869Z,16.07
2023-07-24T21:57:30.536Z,16.03
2023-07-24T21:59:58.193Z,16.00
2023-07-24T22:02:25.958Z,15.98
2023-07-24T22:04:53.720Z,15.95
2023-07-24T22:07:21.380Z,15.94
2023-07-24T22:09:48.934Z,15.91
2023-07-24T22:12:16.824Z,15.89
2023-07-24T22:14:44.569Z,15.87
2023-07-24T22:17:12.243Z,15.83
2023-07-24T22:19:39.893Z,15.75
2023-07-24T22:22:08.075Z,15.69
2023-07-24T22:24:37.959Z,15.64
2023-07-24T22:27:06.570Z,15.58
2023-07-24T22:29:34.115Z,15.55
2023-07-24T22:32:01.891Z,15.53
2023-07-24T22:34:29.546Z,15.49
2023-07-24T22:36:57.917Z,15.45
2023-07-24T22:39:25.987Z,15.41
2023-07-24T22:41:53.855Z,15.37
2023-07-24T22:44:21.435Z,15.36
2023-07-24T22:46:49.473Z,15.36
2023-07-24T22:49:17.255Z,15.33
2023-07-24T22:51:45.322Z,15.32
2023-07-24T22:54:12.976Z,15.31
2023-07-24T22:56:41.883Z,15.27
2023-07-24T22:59:19.421Z,15.22
2023-07-24T23:01:47.433Z,15.16
2023-07-24T23:04:15.196Z,15.10
2023-07-24T23:06:43.570Z,15.08
2023-07-24T23:09:11.437Z,15.08
2023-07-24T23:11:39.716Z,15.09
2023-07-24T23:14:07.368Z,15.11
2023-07-24T23:16:35.763Z,15.13
2023-07-24T23:19:03.616Z,15.16
2023-07-24T23:21:32.021Z,15.19
2023-07-24T23:23:59.805Z,15.21
2023-07-24T23:26:27.946Z,15.22
2023-07-24T23:28:58.672Z,15.21
2023-07-24T23:31:26.337Z,15.21
2023-07-24T23:33:54.601Z,15.19
2023-07-24T23:36:22.997Z,15.15
2023-07-24T23:38:50.640Z,15.14
2023-07-24T23:41:18.297Z,15.13
2023-07-24T23:43:45.959Z,15.08
2023-07-24T23:46:17.577Z,15.04
2023-07-24T23:48:45.392Z,15.01
2023-07-24T23:51:20.142Z,14.97
2023-07-24T23:53:48.276Z,14.93
2023-07-24T23:56:15.938Z,14.90
2023-07-24T23:58:43.500Z,14.87
